Time;durP1;ratioP1;P1;durP2;ratioP2;P2;SDS_P1;SDS_P2;PMS_P1;PMS_P2;Temp;Humidity;BMP_temperature;BMP_pressure;BME280_temperature;BME280_humidity;BME280_pressure;Samples;Min_cycle;Max_cycle;Signal;HPM_P1;HPM_P2
2022/07/08 00:00:23;;;;;;;6.50;2.30;;;14.50;61.90;;;;;;4919744;29;20490;-82
2022/07/08 00:02:50;;;;;;;14.07;2.47;;;14.40;62.50;;;;;;4919318;29;20462;-83
2022/07/08 00:05:17;;;;;;;8.43;2.70;;;14.50;64.00;;;;;;4918940;29;20493;-83
2022/07/08 00:07:44;;;;;;;10.60;1.87;;;14.40;65.00;;;;;;4918304;29;20457;-82
2022/07/08 00:10:11;;;;;;;6.00;2.10;;;14.40;63.30;;;;;;4918756;29;20477;-82
2022/07/08 00:12:38;;;;;;;9.83;2.50;;;14.40;65.00;;;;;;4917985;29;20469;-83
2022/07/08 00:15:05;;;;;;;7.60;3.27;;;14.50;65.10;;;;;;4917900;29;20457;-82
2022/07/08 00:17:33;;;;;;;8.37;2.60;;;14.50;65.10;;;;;;4918524;29;20584;-82
2022/07/08 00:20:00;;;;;;;5.03;2.40;;;14.40;66.50;;;;;;4919335;29;20480;-82
2022/07/08 00:22:27;;;;;;;6.17;2.67;;;14.40;66.90;;;;;;4918637;29;20492;-82
2022/07/08 00:24:54;;;;;;;13.80;3.20;;;14.40;67.50;;;;;;4919385;29;20465;-85
2022/07/08 00:27:21;;;;;;;19.67;3.83;;;14.50;66.70;;;;;;4919410;29;20837;-82
2022/07/08 00:29:48;;;;;;;7.10;2.60;;;14.50;66.80;;;;;;4919790;29;20481;-82
2022/07/08 00:32:15;;;;;;;12.13;3.93;;;14.40;65.70;;;;;;4918812;29;20457;-83
2022/07/08 00:34:43;;;;;;;7.87;2.10;;;14.50;66.50;;;;;;4918922;29;20466;-82
2022/07/08 00:37:10;;;;;;;12.33;2.93;;;14.50;66.40;;;;;;4918541;29;20469;-82
2022/07/08 00:39:37;;;;;;;12.97;2.60;;;14.50;66.10;;;;;;4917787;29;20458;-82
2022/07/08 00:42:05;;;;;;;8.90;2.20;;;14.40;66.80;;;;;;4921021;29;20492;-82
2022/07/08 00:44:32;;;;;;;10.13;3.57;;;14.50;67.50;;;;;;4920129;29;20462;-82
2022/07/08 00:46:58;;;;;;;7.87;2.50;;;14.40;66.40;;;;;;4917805;29;20461;-82
2022/07/08 00:49:25;;;;;;;9.40;2.43;;;14.40;66.80;;;;;;4919691;29;20468;-83
2022/07/08 00:51:53;;;;;;;8.90;2.63;;;14.40;66.50;;;;;;4919157;29;20481;-82
2022/07/08 00:54:22;;;;;;;10.73;3.23;;;14.40;67.20;;;;;;4918134;29;20469;-83
2022/07/08 00:56:49;;;;;;;12.07;2.90;;;14.30;66.90;;;;;;4918573;29;20472;-82
2022/07/08 00:59:16;;;;;;;5.97;2.00;;;14.30;67.50;;;;;;4917803;29;20458;-82
2022/07/08 01:01:43;;;;;;;6.87;2.67;;;14.30;68.60;;;;;;4916736;29;20486;-82
2022/07/08 01:04:10;;;;;;;9.37;2.60;;;14.30;69.50;;;;;;4916915;29;20468;-82
2022/07/08 01:06:37;;;;;;;7.60;2.70;;;14.20;70.20;;;;;;4917219;29;20537;-82
2022/07/08 01:09:06;;;;;;;6.53;2.63;;;14.30;70.50;;;;;;4917870;29;20981;-82
2022/07/08 01:11:33;;;;;;;8.83;3.33;;;14.30;70.40;;;;;;4918207;29;20506;-82
2022/07/08 01:14:00;;;;;;;6.97;2.90;;;14.20;71.50;;;;;;4918168;29;20465;-82
2022/07/08 01:16:26;;;;;;;6.47;2.97;;;14.30;70.20;;;;;;4918610;29;20469;-82
2022/07/08 01:18:53;;;;;;;9.80;2.60;;;14.30;69.50;;;;;;4918117;29;20484;-82
2022/07/08 01:21:21;;;;;;;9.30;2.97;;;14.20;69.70;;;;;;4917647;29;20488;-82
2022/07/08 01:23:48;;;;;;;10.00;2.80;;;14.20;69.10;;;;;;4917727;29;20458;-84
2022/07/08 01:26:15;;;;;;;6.40;2.70;;;14.30;69.10;;;;;;4917393;29;21068;-82
2022/07/08 01:28:43;;;;;;;8.23;3.10;;;14.20;70.20;;;;;;4916817;29;20457;-83
2022/07/08 01:31:10;;;;;;;5.30;2.40;;;14.30;70.60;;;;;;4916966;29;20859;-82
2022/07/08 01:33:38;;;;;;;12.43;2.60;;;14.30;70.50;;;;;;4917279;29;20462;-85
2022/07/08 01:36:05;;;;;;;7.80;2.73;;;14.20;70.20;;;;;;4918416;29;20457;-82
2022/07/08 01:38:33;;;;;;;7.93;2.30;;;14.30;70.10;;;;;;4922732;29;20457;-83
2022/07/08 01:41:00;;;;;;;13.50;3.60;;;14.30;70.10;;;;;;4917645;29;20481;-82
2022/07/08 01:43:27;;;;;;;20.03;3.47;;;14.20;71.30;;;;;;4918080;29;20468;-82
2022/07/08 01:45:54;;;;;;;16.67;4.33;;;14.20;72.40;;;;;;4919327;29;20468;-82
2022/07/08 01:48:21;;;;;;;8.00;4.17;;;14.20;72.90;;;;;;4921838;29;20966;-83
2022/07/08 01:50:48;;;;;;;7.50;5.13;;;14.30;73.70;;;;;;4920748;29;20493;-82
2022/07/08 01:53:14;;;;;;;9.40;4.07;;;14.20;74.20;;;;;;4919296;29;20458;-82
2022/07/08 01:55:43;;;;;;;5.70;3.60;;;14.10;74.90;;;;;;4919587;29;20472;-82
2022/07/08 01:58:09;;;;;;;8.83;3.77;;;14.20;75.00;;;;;;4919860;29;20484;-82
2022/07/08 02:00:36;;;;;;;6.60;3.60;;;14.10;75.60;;;;;;4921858;29;20854;-82
2022/07/08 02:03:03;;;;;;;6.10;3.23;;;14.10;74.40;;;;;;4921485;29;20453;-82
2022/07/08 02:05:32;;;;;;;7.30;4.07;;;14.10;73.70;;;;;;4920957;29;20461;-82
2022/07/08 02:07:59;;;;;;;7.37;5.10;;;14.10;74.90;;;;;;4920871;29;20469;-82
2022/07/08 02:10:26;;;;;;;13.10;4.93;;;14.10;76.20;;;;;;4921425;29;20493;-82
2022/07/08 02:12:53;;;;;;;9.60;5.10;;;14.00;76.60;;;;;;4924163;29;20460;-82
2022/07/08 02:15:20;;;;;;;8.30;5.23;;;14.10;77.10;;;;;;4919773;29;20466;-83
2022/07/08 02:17:47;;;;;;;12.33;4.90;;;14.00;77.50;;;;;;4920229;29;20464;-82
2022/07/08 02:20:14;;;;;;;9.70;6.33;;;13.90;77.40;;;;;;4924268;29;20482;-82
2022/07/08 02:22:42;;;;;;;9.80;8.90;;;13.90;77.60;;;;;;4923825;29;20491;-82
2022/07/08 02:25:09;;;;;;;11.10;9.17;;;13.90;78.90;;;;;;4922855;29;20465;-82
2022/07/08 02:27:36;;;;;;;18.50;10.30;;;13.90;79.40;;;;;;4919882;29;20464;-82
2022/07/08 02:30:05;;;;;;;12.30;11.10;;;13.90;80.50;;;;;;4921017;29;20870;-82
2022/07/08 02:32:31;;;;;;;9.03;8.23;;;13.90;80.50;;;;;;4920935;29;20985;-82
2022/07/08 02:34:58;;;;;;;13.00;11.37;;;13.80;79.00;;;;;;4920623;29;20461;-82
2022/07/08 02:37:26;;;;;;;13.97;9.67;;;13.80;81.20;;;;;;4921440;29;20468;-82
2022/07/08 02:39:53;;;;;;;13.97;12.77;;;13.80;80.40;;;;;;4919702;29;20507;-82
2022/07/08 02:42:20;;;;;;;15.93;14.60;;;13.80;80.40;;;;;;4920471;29;20482;-82
2022/07/08 02:44:47;;;;;;;13.37;12.27;;;13.80;80.40;;;;;;4921771;29;20457;-82
2022/07/08 02:47:15;;;;;;;16.73;15.07;;;13.70;81.00;;;;;;4920853;29;20458;-83
2022/07/08 02:49:41;;;;;;;18.27;16.30;;;13.80;80.40;;;;;;4923446;29;20461;-83
2022/07/08 02:52:08;;;;;;;16.40;15.00;;;13.70;80.30;;;;;;4921370;29;20469;-82
2022/07/08 02:54:35;;;;;;;20.30;19.00;;;13.70;80.30;;;;;;4920653;29;20468;-82
2022/07/08 02:57:02;;;;;;;23.70;22.00;;;13.70;81.10;;;;;;4920260;29;20461;-82
2022/07/08 02:59:28;;;;;;;29.30;26.77;;;13.70;81.20;;;;;;4921124;29;20462;-82
2022/07/08 03:01:55;;;;;;;44.93;42.20;;;13.60;82.30;;;;;;4919484;29;20489;-82
2022/07/08 03:04:23;;;;;;;38.30;36.53;;;13.60;83.60;;;;;;4919203;29;20458;-82
2022/07/08 03:06:50;;;;;;;41.27;38.77;;;13.50;83.00;;;;;;4920751;29;20457;-81
2022/07/08 03:09:17;;;;;;;48.07;46.17;;;13.50;84.00;;;;;;4920933;29;20484;-83
2022/07/08 03:11:44;;;;;;;50.13;48.07;;;13.40;84.40;;;;;;4923327;29;20541;-81
2022/07/08 03:14:10;;;;;;;65.13;62.20;;;13.40;85.30;;;;;;4920041;29;20457;-83
2022/07/08 03:16:37;;;;;;;54.47;51.77;;;13.40;85.50;;;;;;4919979;29;20469;-82
2022/07/08 03:19:04;;;;;;;69.00;66.30;;;13.50;85.10;;;;;;4920741;29;20838;-82
2022/07/08 03:21:32;;;;;;;74.70;71.50;;;13.50;85.70;;;;;;4919793;29;20508;-82
2022/07/08 03:23:59;;;;;;;57.43;54.93;;;13.50;86.30;;;;;;4922031;29;20461;-81
2022/07/08 03:26:25;;;;;;;64.47;61.47;;;13.50;86.10;;;;;;4919120;29;20858;-83
2022/07/08 03:28:52;;;;;;;73.33;70.33;;;13.60;85.90;;;;;;4920488;29;20457;-82
2022/07/08 03:31:19;;;;;;;42.63;40.33;;;13.50;86.70;;;;;;4920785;29;20477;-82
2022/07/08 03:33:46;;;;;;;37.97;35.67;;;13.60;83.90;;;;;;4920459;29;20465;-83
2022/07/08 03:36:12;;;;;;;24.63;22.83;;;13.60;84.90;;;;;;4920244;29;20454;-82
2022/07/08 03:38:40;;;;;;;20.57;19.17;;;13.60;83.30;;;;;;4919729;29;20837;-82
2022/07/08 03:41:23;;;;;;;21.77;19.83;;;13.60;83.30;;;;;;4920526;29;20477;-81
2022/07/08 03:43:51;;;;;;;27.17;25.77;;;13.60;84.30;;;;;;4920955;29;20532;-81
2022/07/08 03:46:18;;;;;;;39.33;35.97;;;13.60;84.60;;;;;;4920475;29;20461;-82
2022/07/08 03:48:45;;;;;;;27.97;26.07;;;13.60;85.20;;;;;;4919424;29;20454;-83
2022/07/08 03:51:13;;;;;;;28.43;26.93;;;13.60;84.70;;;;;;4918259;29;20481;-82
2022/07/08 03:53:41;;;;;;;25.70;24.40;;;13.60;85.20;;;;;;4919957;29;20464;-82
2022/07/08 03:56:08;;;;;;;23.57;22.27;;;13.50;85.10;;;;;;4918447;29;20836;-82
2022/07/08 03:58:35;;;;;;;41.10;38.10;;;13.50;85.10;;;;;;4920683;29;20466;-82
2022/07/08 04:01:02;;;;;;;45.43;43.23;;;13.50;85.80;;;;;;4919521;29;21006;-82
2022/07/08 04:03:29;;;;;;;70.13;66.83;;;13.50;86.70;;;;;;4920001;29;20481;-82
2022/07/08 04:05:56;;;;;;;88.83;85.37;;;13.40;87.80;;;;;;4918377;29;20819;-82
2022/07/08 04:08:22;;;;;;;111.60;107.53;;;13.40;87.80;;;;;;4918967;29;20453;-82
2022/07/08 04:10:50;;;;;;;104.60;100.57;;;13.40;88.50;;;;;;4918985;29;20481;-82
2022/07/08 04:13:17;;;;;;;109.53;105.43;;;13.40;88.40;;;;;;4919319;29;20458;-82
2022/07/08 04:15:44;;;;;;;77.00;73.63;;;13.40;87.80;;;;;;4918632;29;20458;-83
2022/07/08 04:18:11;;;;;;;37.00;35.30;;;13.40;87.70;;;;;;4918675;29;20458;-82
2022/07/08 04:20:37;;;;;;;34.30;32.07;;;13.40;86.10;;;;;;4919738;29;20481;-82
2022/07/08 04:23:05;;;;;;;30.07;28.47;;;13.40;84.40;;;;;;4918546;29;21139;-83
2022/07/08 04:25:32;;;;;;;35.10;33.10;;;13.40;84.60;;;;;;4918108;29;20508;-82
2022/07/08 04:28:00;;;;;;;52.30;49.57;;;13.30;86.00;;;;;;4919534;29;20465;-83
2022/07/08 04:30:27;;;;;;;37.93;36.03;;;13.20;86.40;;;;;;4920967;29;20478;-83
2022/07/08 04:32:53;;;;;;;68.63;65.70;;;13.00;87.40;;;;;;4921593;29;20540;-81
2022/07/08 04:35:20;;;;;;;105.97;102.03;;;12.90;88.60;;;;;;4922724;29;20464;-81
2022/07/08 04:37:48;;;;;;;134.83;129.17;;;12.90;90.10;;;;;;4922144;29;20453;-81
2022/07/08 04:40:15;;;;;;;193.87;186.73;;;12.80;90.60;;;;;;4920052;29;20481;-81
2022/07/08 04:42:42;;;;;;;241.30;233.03;;;12.80;91.20;;;;;;4920690;29;20486;-81
2022/07/08 04:45:11;;;;;;;289.63;280.03;;;13.00;92.00;;;;;;4920724;29;20461;-82
2022/07/08 04:47:38;;;;;;;290.80;281.13;;;13.00;92.20;;;;;;4919087;29;20461;-83
2022/07/08 04:50:05;;;;;;;273.43;263.87;;;13.10;92.20;;;;;;4921703;29;20482;-81
2022/07/08 04:52:32;;;;;;;260.60;251.50;;;13.20;92.10;;;;;;4920494;29;20462;-82
2022/07/08 04:54:59;;;;;;;200.13;192.93;;;13.20;91.10;;;;;;4920135;29;20457;-82
2022/07/08 04:57:25;;;;;;;151.73;146.37;;;13.40;90.60;;;;;;4919701;29;20454;-82
2022/07/08 04:59:52;;;;;;;97.97;94.27;;;13.60;89.20;;;;;;4919022;29;21049;-83
2022/07/08 05:05:50;;;;;;;12.20;11.20;;;13.90;80.50;;;;;;4978533;23;20522;-84
2022/07/08 05:19:08;;;;;;;10.93;3.97;;;14.30;74.90;;;;;;4717207;30;20459;-86
2022/07/08 05:35:41;;;;;;;7.30;2.50;;;15.70;67.30;;;;;;4745355;23;20499;-85
2022/07/08 05:38:46;;;;;;;4.33;1.50;;;16.00;63.10;;;;;;4847084;29;20462;-85
2022/07/08 05:57:48;;;;;;;5.80;2.00;;;17.00;53.00;;;;;;4867384;29;20455;-85
2022/07/08 06:07:14;;;;;;;;;;;;;;;;;;;;;
2022/07/08 06:09:46;;;;;;;7.17;2.60;;;16.80;54.20;;;;;;4926858;29;20462;-86
2022/07/08 06:12:13;;;;;;;9.70;2.13;;;17.00;53.70;;;;;;4926143;29;20469;-85
2022/07/08 06:14:40;;;;;;;10.00;2.80;;;17.20;53.60;;;;;;4924536;29;20459;-86
2022/07/08 06:17:07;;;;;;;7.30;1.90;;;17.30;53.90;;;;;;4925713;29;20540;-86
2022/07/08 06:19:34;;;;;;;11.63;2.20;;;17.60;51.00;;;;;;4924663;29;20525;-85
2022/07/08 06:22:00;;;;;;;11.17;2.30;;;17.90;50.10;;;;;;4924221;29;20518;-86
2022/07/08 06:24:27;;;;;;;6.43;1.70;;;18.20;48.10;;;;;;4923979;29;20462;-86
2022/07/08 06:26:55;;;;;;;6.43;1.83;;;18.40;48.20;;;;;;4924194;29;20837;-86
2022/07/08 06:29:22;;;;;;;8.83;2.60;;;18.30;47.20;;;;;;4925025;29;20470;-86
2022/07/08 06:31:49;;;;;;;6.43;1.80;;;18.50;48.30;;;;;;4925159;29;20480;-85
2022/07/08 06:34:16;;;;;;;5.40;1.50;;;18.30;42.80;;;;;;4925064;29;20454;-85
2022/07/08 06:36:43;;;;;;;6.67;1.70;;;18.10;43.40;;;;;;4930366;29;20498;-85
2022/07/08 06:39:36;;;;;;;13.13;2.10;;;18.40;43.90;;;;;;4939838;29;20533;-86
2022/07/08 06:59:26;;;;;;;4.53;1.30;;;17.40;45.30;;;;;;4859207;29;20483;-85
2022/07/08 07:01:53;;;;;;;8.03;3.47;;;17.40;43.70;;;;;;4947743;29;20479;-87
2022/07/08 07:04:20;;;;;;;7.73;2.10;;;17.60;44.00;;;;;;4945130;29;20480;-83
2022/07/08 07:06:47;;;;;;;14.87;2.20;;;17.40;44.70;;;;;;4945060;29;20469;-86
2022/07/08 07:09:14;;;;;;;4.53;1.70;;;17.60;44.10;;;;;;4944774;29;20890;-83
2022/07/08 07:11:41;;;;;;;8.60;2.00;;;17.40;42.00;;;;;;4943259;29;20568;-86
2022/07/08 07:14:08;;;;;;;5.53;1.20;;;17.40;42.10;;;;;;4944929;29;20994;-86
2022/07/08 07:16:36;;;;;;;6.87;1.80;;;17.40;43.20;;;;;;4950582;29;20974;-85
2022/07/08 07:19:03;;;;;;;5.20;1.20;;;17.10;43.80;;;;;;4950991;29;20987;-86
2022/07/08 07:21:30;;;;;;;5.70;1.23;;;17.00;43.00;;;;;;4947733;29;20486;-85
2022/07/08 07:23:57;;;;;;;6.80;1.50;;;16.90;42.60;;;;;;4947903;29;20487;-85
2022/07/08 07:26:23;;;;;;;8.63;1.70;;;16.80;44.60;;;;;;4948736;29;20454;-86
2022/07/08 07:28:50;;;;;;;8.73;1.93;;;16.90;47.50;;;;;;4946664;29;20472;-84
2022/07/08 07:31:17;;;;;;;4.83;1.43;;;17.00;47.00;;;;;;4944985;29;20479;-85
2022/07/08 07:33:45;;;;;;;10.30;2.13;;;16.80;45.50;;;;;;4947152;29;20456;-84
2022/07/08 07:36:12;;;;;;;7.30;1.83;;;16.90;47.70;;;;;;4942020;29;20465;-83
2022/07/08 07:38:38;;;;;;;4.13;1.20;;;17.50;43.90;;;;;;4941380;29;20466;-83
2022/07/08 07:41:05;;;;;;;6.73;1.63;;;18.30;41.80;;;;;;4940574;29;20862;-83
2022/07/08 07:43:32;;;;;;;10.60;2.50;;;18.70;35.80;;;;;;4940794;29;20867;-83
2022/07/08 07:45:59;;;;;;;5.80;1.53;;;19.60;34.90;;;;;;4941257;29;20460;-84
2022/07/08 07:48:26;;;;;;;6.10;1.30;;;19.80;34.30;;;;;;4941269;29;20461;-84
2022/07/08 07:50:54;;;;;;;8.03;1.40;;;19.80;34.20;;;;;;4940946;29;20481;-83
2022/07/08 07:53:21;;;;;;;6.07;1.33;;;20.10;35.40;;;;;;4941945;29;20466;-84
2022/07/08 07:55:47;;;;;;;9.83;1.67;;;19.60;34.90;;;;;;4941699;29;20462;-84
2022/07/08 07:58:14;;;;;;;5.50;1.37;;;19.20;36.10;;;;;;4941448;29;20492;-83
2022/07/08 08:00:41;;;;;;;4.63;1.53;;;18.60;35.80;;;;;;4942239;29;20473;-84
2022/07/08 08:03:07;;;;;;;8.47;2.10;;;19.30;39.00;;;;;;4941518;29;20480;-83
2022/07/08 08:05:34;;;;;;;9.33;2.67;;;18.90;36.80;;;;;;4940776;29;20461;-84
2022/07/08 08:08:02;;;;;;;6.50;1.60;;;18.60;37.50;;;;;;4941963;29;20460;-84
2022/07/08 08:10:29;;;;;;;7.73;3.03;;;19.20;38.60;;;;;;4941243;29;20861;-82
2022/07/08 08:12:56;;;;;;;4.73;1.37;;;19.40;34.70;;;;;;4941627;29;20475;-83
2022/07/08 08:15:25;;;;;;;9.17;1.60;;;19.50;34.80;;;;;;4942460;29;20462;-83
2022/07/08 08:17:52;;;;;;;7.80;1.90;;;19.90;35.20;;;;;;4943387;29;20546;-84
2022/07/08 08:20:19;;;;;;;7.20;1.70;;;20.70;31.30;;;;;;4942114;29;20464;-84
2022/07/08 08:22:46;;;;;;;12.20;1.73;;;20.70;29.90;;;;;;4942923;29;20458;-83
2022/07/08 08:25:14;;;;;;;5.40;1.37;;;20.30;31.00;;;;;;4940491;29;20471;-83
2022/07/08 08:27:41;;;;;;;4.47;1.07;;;20.10;29.20;;;;;;4941113;29;20458;-84
2022/07/08 08:30:09;;;;;;;9.53;1.60;;;19.70;30.50;;;;;;4942532;29;20478;-84
2022/07/08 08:32:36;;;;;;;5.33;1.60;;;19.30;31.90;;;;;;4933039;29;20483;-84
2022/07/08 08:35:03;;;;;;;7.60;1.77;;;19.50;34.80;;;;;;4941096;29;20459;-84
2022/07/08 08:37:30;;;;;;;6.57;1.40;;;20.10;32.00;;;;;;4941397;29;20502;-84
2022/07/08 08:39:57;;;;;;;15.13;2.43;;;20.50;30.90;;;;;;4942335;29;20465;-83
2022/07/08 08:42:25;;;;;;;12.10;2.03;;;21.00;31.00;;;;;;4941162;29;20511;-84
2022/07/08 08:44:52;;;;;;;8.23;1.70;;;21.00;29.50;;;;;;4940636;29;20495;-84
2022/07/08 08:47:21;;;;;;;11.40;1.83;;;21.30;28.40;;;;;;4940783;29;20465;-84
2022/07/08 08:49:50;;;;;;;8.00;1.70;;;21.40;25.80;;;;;;4940330;29;20465;-84
2022/07/08 08:52:17;;;;;;;5.90;1.73;;;21.40;24.10;;;;;;4941290;29;20836;-84
2022/07/08 08:54:46;;;;;;;6.70;1.60;;;21.70;21.70;;;;;;4940803;29;20859;-84
2022/07/08 08:57:13;;;;;;;9.80;1.70;;;20.90;24.90;;;;;;4940695;29;20460;-84
2022/07/08 08:59:42;;;;;;;5.93;1.47;;;21.00;23.20;;;;;;4940577;29;20470;-83
2022/07/08 09:02:11;;;;;;;6.00;1.97;;;21.40;22.10;;;;;;4940635;29;20487;-84
2022/07/08 09:04:38;;;;;;;3.90;1.03;;;22.00;24.60;;;;;;4939715;29;20483;-84
2022/07/08 09:07:05;;;;;;;9.33;1.70;;;21.60;21.10;;;;;;4940110;29;20472;-84
2022/07/08 09:09:32;;;;;;;4.87;1.30;;;22.50;21.50;;;;;;4941431;29;20461;-84
2022/07/08 09:12:17;;;;;;;4.73;1.43;;;22.00;21.10;;;;;;4940767;29;20488;-84
2022/07/08 09:14:50;;;;;;;7.30;1.70;;;21.80;19.40;;;;;;4940112;29;20463;-84
2022/07/08 09:17:17;;;;;;;9.20;1.87;;;21.80;21.00;;;;;;4940425;29;20456;-84
2022/07/08 09:19:45;;;;;;;6.17;1.33;;;22.20;19.50;;;;;;4940711;29;20512;-84
2022/07/08 09:22:12;;;;;;;6.53;1.53;;;22.00;19.70;;;;;;4940093;29;20859;-84
2022/07/08 09:24:39;;;;;;;8.33;1.67;;;23.00;21.90;;;;;;4940217;29;20488;-84
2022/07/08 09:27:07;;;;;;;5.17;1.00;;;23.00;20.80;;;;;;4940187;29;20456;-84
2022/07/08 09:29:35;;;;;;;5.83;1.83;;;23.30;18.30;;;;;;4940175;29;20528;-84
2022/07/08 09:32:13;;;;;;;8.60;1.90;;;23.30;16.60;;;;;;4940523;29;20477;-86
2022/07/08 09:34:42;;;;;;;4.80;1.70;;;23.90;15.00;;;;;;4942412;29;20471;-86
2022/07/08 09:37:12;;;;;;;6.40;1.37;;;24.00;15.50;;;;;;4946001;29;20462;-84
2022/07/08 09:39:39;;;;;;;5.40;1.40;;;23.40;14.60;;;;;;4942983;29;20462;-85
2022/07/08 09:42:08;;;;;;;5.30;1.23;;;24.30;13.60;;;;;;4940188;29;20487;-86
2022/07/08 09:44:35;;;;;;;8.90;1.70;;;24.30;16.80;;;;;;4939069;29;20488;-85
2022/07/08 09:47:01;;;;;;;6.80;1.63;;;24.30;14.40;;;;;;4940501;29;20464;-85
2022/07/08 09:49:31;;;;;;;6.63;1.40;;;24.00;15.10;;;;;;4939016;29;20460;-86
2022/07/08 09:51:58;;;;;;;9.43;1.60;;;24.10;12.80;;;;;;4938895;29;20480;-86
2022/07/08 09:58:04;;;;;;;;;;;;;;;;;;;;;
2022/07/08 10:00:31;;;;;;;11.80;1.57;;;24.40;13.60;;;;;;4937443;29;20468;-86
2022/07/08 10:02:58;;;;;;;7.73;1.87;;;25.90;6.60;;;;;;4939721;29;20949;-86
2022/07/08 10:05:26;;;;;;;6.80;1.53;;;26.30;8.80;;;;;;4942311;29;20461;-85
2022/07/08 10:07:53;;;;;;;9.13;2.10;;;24.50;9.40;;;;;;4937900;29;20460;-85
2022/07/08 10:10:20;;;;;;;7.70;1.50;;;23.70;7.20;;;;;;4938200;29;20980;-85
2022/07/08 10:12:47;;;;;;;8.50;1.60;;;24.40;9.00;;;;;;4940705;29;20472;-84
2022/07/08 10:15:16;;;;;;;5.87;1.80;;;24.20;11.10;;;;;;4943159;29;20456;-83
2022/07/08 10:17:45;;;;;;;5.73;1.70;;;24.20;7.60;;;;;;4943838;29;20464;-84
2022/07/08 10:20:14;;;;;;;7.10;1.73;;;24.90;8.60;;;;;;4945926;29;20461;-85
2022/07/08 10:22:45;;;;;;;5.87;1.80;;;26.30;5.40;;;;;;4946712;29;20453;-84
2022/07/08 10:25:12;;;;;;;8.63;1.80;;;26.00;6.50;;;;;;4946424;29;20488;-85
2022/07/08 10:27:39;;;;;;;7.07;1.20;;;25.90;3.40;;;;;;4946586;29;20462;-84
2022/07/08 10:30:15;;;;;;;5.93;1.10;;;26.30;8.50;;;;;;4947475;29;20813;-85
2022/07/08 10:32:45;;;;;;;6.87;1.87;;;26.70;5.20;;;;;;4946833;29;20452;-85
2022/07/08 10:35:14;;;;;;;8.33;1.37;;;26.40;6.00;;;;;;4947767;29;20452;-84
2022/07/08 10:37:56;;;;;;;7.27;1.80;;;25.20;5.90;;;;;;4947492;29;20842;-84
2022/07/08 10:40:52;;;;;;;6.33;1.60;;;25.20;4.40;;;;;;4947531;29;20471;-84
2022/07/08 10:43:23;;;;;;;11.23;1.67;;;26.40;10.10;;;;;;4946878;29;20468;-85
2022/07/08 10:46:11;;;;;;;9.07;1.60;;;26.60;5.60;;;;;;4946176;29;20448;-85
2022/07/08 10:48:55;;;;;;;7.33;1.80;;;27.00;1.30;;;;;;4945619;29;20453;-85
2022/07/08 10:51:44;;;;;;;13.50;2.10;;;26.90;1.00;;;;;;4944181;29;20829;-85
2022/07/08 10:54:29;;;;;;;10.43;1.97;;;26.90;4.30;;;;;;4944685;29;20452;-84
2022/07/08 10:56:58;;;;;;;6.63;2.17;;;27.00;4.70;;;;;;4947098;29;20460;-85
2022/07/08 10:59:26;;;;;;;11.73;2.43;;;27.70;2.40;;;;;;4947049;29;20456;-85
2022/07/08 11:01:54;;;;;;;5.90;1.20;;;27.50;1.00;;;;;;4957022;23;20489;-84
2022/07/08 11:04:25;;;;;;;7.43;1.50;;;26.70;1.70;;;;;;4924500;29;20485;-84
2022/07/08 11:06:52;;;;;;;8.37;1.87;;;25.10;4.30;;;;;;4925394;29;20457;-84
2022/07/08 11:09:22;;;;;;;4.60;1.20;;;25.60;7.10;;;;;;4925298;29;20939;-84
2022/07/08 11:11:50;;;;;;;4.97;1.50;;;25.40;6.80;;;;;;4924700;29;20482;-84
2022/07/08 11:14:16;;;;;;;7.70;1.80;;;25.30;5.90;;;;;;4924776;29;20460;-84
2022/07/08 11:16:43;;;;;;;7.30;1.90;;;25.40;4.70;;;;;;4925376;29;20834;-84
2022/07/08 11:19:10;;;;;;;8.73;2.10;;;25.30;4.80;;;;;;4924057;29;20454;-84
2022/07/08 11:21:37;;;;;;;8.23;1.70;;;25.50;1.70;;;;;;4923996;29;20852;-84
2022/07/08 11:24:04;;;;;;;7.70;1.70;;;25.40;3.50;;;;;;4923680;29;20512;-84
2022/07/08 11:26:33;;;;;;;8.17;1.73;;;25.40;4.50;;;;;;4924473;29;20470;-84
2022/07/08 11:28:59;;;;;;;5.90;1.80;;;25.00;7.00;;;;;;4924055;29;20461;-84
2022/07/08 11:31:27;;;;;;;7.83;1.50;;;25.10;5.20;;;;;;4923548;29;20486;-84
2022/07/08 11:33:55;;;;;;;6.60;1.63;;;25.50;4.90;;;;;;4923127;29;20478;-84
2022/07/08 11:36:22;;;;;;;4.87;1.40;;;26.30;5.00;;;;;;4924012;29;20539;-84
2022/07/08 11:38:50;;;;;;;9.30;2.00;;;27.40;2.90;;;;;;4923765;29;20605;-84
2022/07/08 11:41:20;;;;;;;8.37;1.43;;;28.10;1.00;;;;;;4923986;29;21022;-84
2022/07/08 11:43:49;;;;;;;9.50;1.30;;;28.30;1.00;;;;;;4924296;29;20517;-84
2022/07/08 11:46:18;;;;;;;4.43;1.10;;;28.80;1.00;;;;;;4924817;29;20458;-84
2022/07/08 11:48:44;;;;;;;6.60;1.20;;;29.10;1.00;;;;;;4924733;29;20481;-84
2022/07/08 11:51:14;;;;;;;8.40;1.80;;;28.60;1.00;;;;;;4925777;29;20507;-84
2022/07/08 11:53:41;;;;;;;6.43;1.57;;;28.90;1.00;;;;;;4924041;29;20528;-84
2022/07/08 11:56:09;;;;;;;8.73;2.07;;;29.30;1.00;;;;;;4924550;29;20468;-84
2022/07/08 11:58:36;;;;;;;7.27;1.67;;;28.40;1.00;;;;;;4925501;29;21002;-85
2022/07/08 12:01:05;;;;;;;7.77;1.40;;;27.60;1.00;;;;;;4924337;29;20489;-84
2022/07/08 12:03:34;;;;;;;6.07;1.20;;;26.90;1.00;;;;;;4924220;29;20454;-84
2022/07/08 12:06:01;;;;;;;6.23;1.43;;;26.70;1.20;;;;;;4923508;29;20480;-85
2022/07/08 12:08:28;;;;;;;6.13;1.37;;;26.90;1.00;;;;;;4923908;29;20958;-84
2022/07/08 12:11:18;;;;;;;14.53;2.07;;;26.80;1.20;;;;;;4923515;29;20950;-84
2022/07/08 12:13:46;;;;;;;5.43;1.67;;;26.70;3.80;;;;;;4923682;29;20492;-82
2022/07/08 12:16:29;;;;;;;7.87;1.40;;;26.60;3.50;;;;;;4923146;29;20454;-84
2022/07/08 12:18:55;;;;;;;6.33;1.47;;;26.60;4.20;;;;;;4923715;29;20854;-84
2022/07/08 12:21:22;;;;;;;4.47;1.40;;;26.60;3.00;;;;;;4924019;29;21008;-84
2022/07/08 12:23:56;;;;;;;6.93;1.57;;;26.20;3.50;;;;;;4924306;29;20458;-82
2022/07/08 12:26:24;;;;;;;9.13;1.70;;;26.60;4.00;;;;;;4925317;29;20461;-84
2022/07/08 12:28:51;;;;;;;6.10;1.43;;;26.40;5.60;;;;;;4921215;29;20557;-82
2022/07/08 12:31:38;;;;;;;6.30;1.40;;;26.00;5.70;;;;;;4919605;29;20492;-82
2022/07/08 12:34:07;;;;;;;7.07;1.80;;;25.50;6.80;;;;;;4919916;29;20528;-83
2022/07/08 12:36:33;;;;;;;5.27;2.40;;;25.80;7.80;;;;;;4919557;29;20481;-83
2022/07/08 12:39:11;;;;;;;7.83;1.63;;;25.50;5.10;;;;;;4919820;29;20521;-82
2022/07/08 12:41:38;;;;;;;7.10;1.90;;;25.60;3.30;;;;;;4919629;29;20477;-83
2022/07/08 12:44:29;;;;;;;6.90;1.87;;;25.80;4.40;;;;;;4919922;29;20468;-82
2022/07/08 12:46:58;;;;;;;4.50;1.07;;;26.00;5.40;;;;;;4919971;29;20457;-83
2022/07/08 12:49:25;;;;;;;4.77;1.10;;;26.50;3.60;;;;;;4919857;29;20488;-84
2022/07/08 12:51:52;;;;;;;5.40;1.70;;;27.40;1.00;;;;;;4919543;29;20479;-83
2022/07/08 12:54:23;;;;;;;6.77;1.73;;;27.20;1.50;;;;;;4919908;29;20453;-83
2022/07/08 12:56:51;;;;;;;4.50;1.10;;;26.50;3.00;;;;;;4920216;29;20486;-83
2022/07/08 12:59:18;;;;;;;10.47;1.23;;;26.70;4.60;;;;;;4919697;29;21014;-83
2022/07/08 13:01:46;;;;;;;5.50;1.30;;;26.40;4.30;;;;;;4919573;29;20468;-84
2022/07/08 13:04:14;;;;;;;8.40;1.70;;;26.70;1.20;;;;;;4919970;29;20462;-84
2022/07/08 13:06:41;;;;;;;5.77;1.50;;;27.70;1.00;;;;;;4920239;29;20552;-85
2022/07/08 13:09:10;;;;;;;6.97;1.70;;;27.20;1.00;;;;;;4920281;29;20462;-83
2022/07/08 13:11:37;;;;;;;6.03;1.70;;;27.70;1.70;;;;;;4912661;29;20481;-83
2022/07/08 13:14:04;;;;;;;6.73;2.30;;;27.70;1.80;;;;;;4919892;29;20886;-84
2022/07/08 13:16:31;;;;;;;6.63;1.63;;;28.70;1.00;;;;;;4919556;29;20824;-83
2022/07/08 13:18:58;;;;;;;10.90;1.70;;;28.50;1.00;;;;;;4920050;29;20461;-85
2022/07/08 13:21:26;;;;;;;9.00;1.63;;;28.20;1.00;;;;;;4920396;29;20485;-84
2022/07/08 13:23:57;;;;;;;6.90;1.77;;;28.70;1.00;;;;;;4920180;29;20465;-84
2022/07/08 13:26:24;;;;;;;7.13;1.50;;;28.40;1.00;;;;;;4919802;29;20485;-83
2022/07/08 13:28:52;;;;;;;7.10;1.40;;;27.60;1.70;;;;;;4920526;29;20985;-83
2022/07/08 13:31:19;;;;;;;7.90;1.53;;;27.10;1.40;;;;;;4919354;29;20478;-84
2022/07/08 13:33:47;;;;;;;9.07;1.70;;;27.60;1.70;;;;;;4919387;29;20465;-83
2022/07/08 13:36:14;;;;;;;7.60;2.00;;;27.60;1.70;;;;;;4920414;29;20457;-84
2022/07/08 13:38:43;;;;;;;20.73;1.80;;;27.60;1.70;;;;;;4920279;29;20459;-84
2022/07/08 13:41:09;;;;;;;5.23;1.80;;;27.10;1.00;;;;;;4919372;29;20484;-84
2022/07/08 13:43:36;;;;;;;11.10;2.53;;;27.40;2.60;;;;;;4919066;29;20854;-83
2022/07/08 13:46:03;;;;;;;5.50;1.63;;;27.20;1.40;;;;;;4919213;29;20477;-84
2022/07/08 13:48:30;;;;;;;7.70;2.00;;;27.90;1.80;;;;;;4918977;29;20468;-83
2022/07/08 13:50:57;;;;;;;8.63;1.90;;;27.60;1.00;;;;;;4919391;29;20489;-83
2022/07/08 13:53:23;;;;;;;8.47;2.47;;;27.30;1.00;;;;;;4921094;29;20977;-85
2022/07/08 13:55:51;;;;;;;5.60;1.83;;;27.40;1.60;;;;;;4922954;29;20852;-83
2022/07/08 13:58:18;;;;;;;8.07;2.13;;;27.60;4.20;;;;;;4922873;29;20839;-83
2022/07/08 14:00:45;;;;;;;4.87;1.30;;;27.60;2.80;;;;;;4923117;29;20465;-82
2022/07/08 14:03:12;;;;;;;4.20;1.50;;;27.20;1.80;;;;;;4922944;29;20457;-84